CSY4 weather

St-Donat Airport
St-Donat, Quebec, Canada

Public forecast

Using degrees Celsius for public forecast. Weather courtesy of forecast.io.

METAR (pilot weather report)

Closest report is Montreal International (Mirabel) Airport, 38.1 nm (70.5 km) S. Retrieved 2019/09/23 12:41 UTC (18 minutes ago):

CYMX 231241Z 22006KT 6SM -RA BR BKN006 OVC055 19/18 A2967 RMK SF5SC3 SLP050 DENSITY ALT 1100FT

TAF (pilot weather forecast)

Closest forecast is Montreal International (Mirabel) Airport, 38.1 nm (70.5 km) S. Retrieved 2019/09/23 12:42 UTC (17 minutes ago):

TAF CYMX 231138Z 2312/2412 25010G20KT P6SM -SHRA FEW015 BKN040 OVC100 TEMPO 2312/2315 5SM -SHRA BR BKN015 OVC040 FM231500 22008G18KT 5SM -SHRA BR SCT008 OVC015 TEMPO 2315/2321 P6SM NSW SCT015 OVC025 FM232100 22008KT 3SM -SHRA BR OVC008 TEMPO 2321/2403 6SM -SHRA BR SCT008 OVC015 PROB30 2321/2401 VRB15G30KT 2SM +TSRA BR BKN004 OVC008CB FM240300 24008KT 4SM -SHRA BR OVC006 RMK NXT FCST BY 231800Z